Time;durP1;ratioP1;P1;durP2;ratioP2;P2;SDS_P1;SDS_P2;PMS_P1;PMS_P2;Temp;Humidity;BMP_temperature;BMP_pressure;BME280_temperature;BME280_humidity;BME280_pressure;Samples;Min_cycle;Max_cycle;Signal;HPM_P1;HPM_P2
2023/04/18 00:01:54;;;;;;;16.80;12.60;;;;;;;-145.41;100.00;58600.66;4964865;28;20038;-72
2023/04/18 00:04:19;;;;;;;15.05;12.02;;;;;;;-145.41;100.00;58600.66;4961490;28;20418;-72
2023/04/18 00:06:46;;;;;;;13.82;11.20;;;;;;;-145.41;100.00;58600.66;4964697;28;20069;-72
2023/04/18 00:09:11;;;;;;;14.98;11.50;;;;;;;-145.41;100.00;58600.66;4960681;28;20043;-72
2023/04/18 00:11:36;;;;;;;16.58;12.15;;;;;;;-145.41;100.00;58600.66;4964685;28;20092;-72
2023/04/18 00:14:02;;;;;;;14.10;10.93;;;;;;;-145.41;100.00;58600.66;4961170;28;20039;-72
2023/04/18 00:16:27;;;;;;;13.48;10.55;;;;;;;-145.41;100.00;58600.66;4964340;28;20049;-72
2023/04/18 00:18:53;;;;;;;14.70;11.77;;;;;;;-145.41;100.00;58600.66;4963127;28;20520;-72
2023/04/18 00:21:18;;;;;;;15.43;12.18;;;;;;;-145.41;100.00;58600.66;4963625;28;20034;-72
2023/04/18 00:23:44;;;;;;;14.35;11.32;;;;;;;-145.41;100.00;58600.66;4962429;28;20434;-72
2023/04/18 00:26:10;;;;;;;13.40;11.38;;;;;;;-145.41;100.00;58600.66;4964214;28;20153;-72
2023/04/18 00:28:37;;;;;;;15.30;11.85;;;;;;;-145.41;100.00;58600.66;4961735;28;20109;-72
2023/04/18 00:31:03;;;;;;;14.75;11.05;;;;;;;-145.41;100.00;58600.66;4947289;28;20505;-72
2023/04/18 00:33:30;;;;;;;14.35;10.98;;;;;;;-145.41;100.00;58600.66;4968855;28;20470;-72
2023/04/18 00:35:55;;;;;;;14.20;11.32;;;;;;;-145.41;100.00;58600.66;4957306;28;20082;-72
2023/04/18 00:38:20;;;;;;;14.63;10.00;;;;;;;-145.41;100.00;58600.66;4962649;28;20026;-71
2023/04/18 00:40:46;;;;;;;13.50;10.45;;;;;;;-145.41;100.00;58600.66;5011003;23;20038;-77
2023/04/18 00:43:13;;;;;;;13.18;11.23;;;;;;;-145.41;100.00;58600.66;5026492;28;20060;-77
2023/04/18 00:45:39;;;;;;;12.10;10.57;;;;;;;-145.41;100.00;58600.66;4991395;28;20034;-77
2023/04/18 00:48:05;;;;;;;13.35;9.23;;;;;;;-145.41;100.00;58600.66;5024739;28;20126;-77
2023/04/18 00:50:30;;;;;;;12.88;9.65;;;;;;;-145.41;100.00;58600.66;5017463;28;20062;-76
2023/04/18 00:52:57;;;;;;;13.75;10.35;;;;;;;-145.41;100.00;58600.66;4970425;28;20128;-77
2023/04/18 00:55:23;;;;;;;13.05;10.95;;;;;;;-145.41;100.00;58600.66;4986297;28;20093;-77
2023/04/18 00:57:49;;;;;;;13.23;10.07;;;;;;;-145.41;100.00;58600.66;4968203;28;20034;-77
2023/04/18 01:00:14;;;;;;;12.38;10.00;;;;;;;-145.41;100.00;58600.66;4977190;28;20696;-77
2023/04/18 01:02:40;;;;;;;13.43;11.23;;;;;;;-145.41;100.00;58600.66;4984477;28;20039;-77
2023/04/18 01:05:06;;;;;;;11.65;9.50;;;;;;;-145.41;100.00;58600.66;4986637;28;20042;-77
2023/04/18 01:07:34;;;;;;;12.38;9.82;;;;;;;-145.41;100.00;58600.66;4987262;28;20050;-77
2023/04/18 01:10:01;;;;;;;11.75;10.05;;;;;;;-145.41;100.00;58600.66;4969565;28;20451;-77
2023/04/18 01:12:26;;;;;;;13.20;10.00;;;;;;;-145.41;100.00;58600.66;4966030;28;20409;-77
2023/04/18 01:14:53;;;;;;;14.10;9.60;;;;;;;-145.41;100.00;58600.66;4986916;28;20038;-77
2023/04/18 01:17:18;;;;;;;11.88;9.68;;;;;;;-145.41;100.00;58600.66;4966945;28;20030;-77
2023/04/18 01:19:47;;;;;;;13.48;10.63;;;;;;;-145.41;100.00;58600.66;4968991;28;20485;-77
2023/04/18 01:22:13;;;;;;;13.75;9.95;;;;;;;-145.41;100.00;58600.66;4969704;28;20124;-76
2023/04/18 01:24:39;;;;;;;11.85;9.10;;;;;;;-145.41;100.00;58600.66;4986946;28;20061;-77
2023/04/18 01:27:05;;;;;;;11.70;9.13;;;;;;;-145.41;100.00;58600.66;4975443;28;20134;-77
2023/04/18 01:29:32;;;;;;;14.80;9.80;;;;;;;-145.41;100.00;58600.66;4969646;28;20045;-77
2023/04/18 01:31:57;;;;;;;12.20;9.40;;;;;;;-145.41;100.00;58600.66;4967262;28;20062;-77
2023/04/18 01:34:22;;;;;;;12.25;9.35;;;;;;;-145.41;100.00;58600.66;4986767;28;20058;-77
2023/04/18 01:36:48;;;;;;;12.63;9.63;;;;;;;-145.41;100.00;58600.66;4967590;28;20073;-77
2023/04/18 01:39:13;;;;;;;12.32;9.98;;;;;;;-145.41;100.00;58600.66;4984562;28;20066;-77
2023/04/18 01:41:40;;;;;;;13.10;9.75;;;;;;;-145.41;100.00;58600.66;4988168;28;20042;-77
2023/04/18 01:44:06;;;;;;;11.43;8.90;;;;;;;-145.41;100.00;58600.66;4985150;28;20034;-77
2023/04/18 01:46:31;;;;;;;14.88;9.85;;;;;;;-145.41;100.00;58600.66;4966934;28;20101;-77
2023/04/18 01:48:57;;;;;;;12.10;9.18;;;;;;;-145.41;100.00;58600.66;4984677;28;20042;-77
2023/04/18 01:51:23;;;;;;;13.05;9.48;;;;;;;-145.41;100.00;58600.66;4984114;28;20512;-77
2023/04/18 01:53:48;;;;;;;13.40;10.02;;;;;;;-145.41;100.00;58600.66;4983549;28;20047;-77
2023/04/18 01:56:13;;;;;;;13.25;9.65;;;;;;;-145.41;100.00;58600.66;4986163;28;20068;-77
2023/04/18 01:58:40;;;;;;;13.35;9.48;;;;;;;-145.41;100.00;58600.66;4966187;28;20027;-77
2023/04/18 02:01:05;;;;;;;14.25;9.52;;;;;;;-145.41;100.00;58600.66;4968093;28;20034;-77
2023/04/18 02:03:31;;;;;;;13.25;10.25;;;;;;;-145.41;100.00;58600.66;4991996;28;20386;-77
2023/04/18 02:05:56;;;;;;;13.93;10.10;;;;;;;-145.41;100.00;58600.66;4990102;28;20046;-77
2023/04/18 02:08:21;;;;;;;14.18;11.07;;;;;;;-145.41;100.00;58600.66;4965426;28;20089;-77
2023/04/18 02:10:47;;;;;;;12.80;10.23;;;;;;;-145.41;100.00;58600.66;4976155;28;20834;-77
2023/04/18 02:13:14;;;;;;;14.85;10.75;;;;;;;-145.41;100.00;58600.66;4980005;28;20050;-77
2023/04/18 02:15:39;;;;;;;14.55;11.52;;;;;;;-145.41;100.00;58600.66;4982510;28;20023;-76
2023/04/18 02:18:05;;;;;;;14.63;11.73;;;;;;;-145.41;100.00;58600.66;4969033;28;20045;-77
2023/04/18 02:20:32;;;;;;;16.23;12.18;;;;;;;-145.41;100.00;58600.66;4970060;28;20030;-77
2023/04/18 02:22:59;;;;;;;16.38;11.88;;;;;;;-145.41;100.00;58600.66;4982128;28;20030;-76
2023/04/18 02:25:28;;;;;;;17.08;12.65;;;;;;;-145.41;100.00;58600.66;4984640;28;20049;-77
2023/04/18 02:27:55;;;;;;;16.05;12.88;;;;;;;-145.41;100.00;58600.66;4985830;28;20043;-77
2023/04/18 02:30:21;;;;;;;18.92;12.32;;;;;;;-145.41;100.00;58600.66;4966669;28;20038;-77
2023/04/18 02:32:52;;;;;;;19.38;14.77;;;;;;;-145.41;100.00;58600.66;4983588;28;20035;-77
2023/04/18 02:35:18;;;;;;;22.50;16.15;;;;;;;-145.41;100.00;58600.66;4983356;28;20078;-77
2023/04/18 02:37:47;;;;;;;22.60;16.10;;;;;;;-145.41;100.00;58600.66;4971148;28;20109;-77
2023/04/18 02:40:12;;;;;;;19.58;14.07;;;;;;;-145.41;100.00;58600.66;4967748;28;20133;-77
2023/04/18 02:42:38;;;;;;;17.80;13.88;;;;;;;-145.41;100.00;58600.66;4984953;28;20085;-77
2023/04/18 02:45:04;;;;;;;17.75;12.60;;;;;;;-145.41;100.00;58600.66;4972676;28;20397;-77
2023/04/18 02:47:30;;;;;;;17.67;12.23;;;;;;;-145.41;100.00;58600.66;4967924;28;20114;-77
2023/04/18 02:49:55;;;;;;;15.05;11.38;;;;;;;-145.41;100.00;58600.66;4992009;28;20093;-77
2023/04/18 02:52:24;;;;;;;19.35;12.70;;;;;;;-145.41;100.00;58600.66;4967255;28;20026;-77
2023/04/18 02:54:50;;;;;;;16.35;11.90;;;;;;;-145.41;100.00;58600.66;4985308;28;20030;-77
2023/04/18 02:57:20;;;;;;;17.30;11.60;;;;;;;-145.41;100.00;58600.66;4966815;28;20031;-77
2023/04/18 02:59:59;;;;;;;18.10;12.85;;;;;;;-145.41;100.00;58600.66;4966853;28;20436;-77
2023/04/18 03:02:43;;;;;;;15.98;11.90;;;;;;;-145.41;100.00;58600.66;4983284;28;20565;-77
2023/04/18 03:05:22;;;;;;;16.10;11.63;;;;;;;-145.41;100.00;58600.66;4966561;28;20505;-77
2023/04/18 03:07:49;;;;;;;18.30;12.65;;;;;;;-145.41;100.00;58600.66;4976017;28;20078;-77
2023/04/18 03:10:15;;;;;;;16.02;11.88;;;;;;;-145.41;100.00;58600.66;4967212;28;20038;-77
2023/04/18 03:12:41;;;;;;;16.92;12.45;;;;;;;-145.41;100.00;58600.66;4964167;28;20033;-77
2023/04/18 03:15:09;;;;;;;18.35;12.00;;;;;;;-145.41;100.00;58600.66;4966877;28;20068;-77
2023/04/18 03:17:35;;;;;;;15.43;11.43;;;;;;;-145.41;100.00;58600.66;4964431;28;20062;-77
2023/04/18 03:20:03;;;;;;;15.68;11.52;;;;;;;-145.41;100.00;58600.66;4974985;28;20022;-77
2023/04/18 03:22:28;;;;;;;16.08;10.68;;;;;;;-145.41;100.00;58600.66;4969888;28;20563;-77
2023/04/18 03:24:55;;;;;;;16.05;10.95;;;;;;;-145.41;100.00;58600.66;4982545;28;20122;-76
2023/04/18 03:27:30;;;;;;;16.92;11.00;;;;;;;-145.41;100.00;58600.66;4964367;28;20035;-77
2023/04/18 03:29:55;;;;;;;18.90;11.23;;;;;;;-145.41;100.00;58600.66;4966363;28;20038;-77
2023/04/18 03:32:21;;;;;;;15.88;11.32;;;;;;;-145.41;100.00;58600.66;4967234;28;20045;-77
2023/04/18 03:34:47;;;;;;;16.35;11.55;;;;;;;-145.41;100.00;58600.66;4981511;28;20093;-77
2023/04/18 03:37:13;;;;;;;15.73;11.20;;;;;;;-145.41;100.00;58600.66;4984138;28;20030;-77
2023/04/18 03:39:45;;;;;;;14.48;10.70;;;;;;;-145.41;100.00;58600.66;4966976;28;20850;-77
2023/04/18 03:42:10;;;;;;;16.35;11.57;;;;;;;-145.41;100.00;58600.66;4993155;28;20057;-77
2023/04/18 03:44:36;;;;;;;16.80;12.18;;;;;;;-145.41;100.00;58600.66;4968679;28;20034;-77
2023/04/18 03:47:02;;;;;;;16.50;11.80;;;;;;;-145.41;100.00;58600.66;4968245;28;20120;-77
2023/04/18 03:49:29;;;;;;;16.95;12.02;;;;;;;-145.41;100.00;58600.66;4975666;28;20600;-77
2023/04/18 03:51:54;;;;;;;15.70;11.63;;;;;;;-145.41;100.00;58600.66;4986161;28;20070;-77
2023/04/18 03:54:20;;;;;;;17.60;11.80;;;;;;;-145.41;100.00;58600.66;4965589;28;20072;-77
2023/04/18 03:56:47;;;;;;;18.05;11.32;;;;;;;-145.41;100.00;58600.66;4964935;28;20034;-78
2023/04/18 03:59:14;;;;;;;15.27;11.07;;;;;;;-145.41;100.00;58600.66;4966611;28;20034;-77
2023/04/18 04:01:43;;;;;;;14.52;11.07;;;;;;;-145.41;100.00;58600.66;4964221;28;20034;-77
2023/04/18 04:04:10;;;;;;;15.35;10.70;;;;;;;-145.41;100.00;58600.66;4983077;28;20057;-77
2023/04/18 04:06:36;;;;;;;15.15;10.73;;;;;;;-145.41;100.00;58600.66;4982578;28;20035;-77
2023/04/18 04:09:01;;;;;;;16.98;12.25;;;;;;;-145.41;100.00;58600.66;4969793;28;20030;-77
2023/04/18 04:11:28;;;;;;;19.15;12.07;;;;;;;-145.41;100.00;58600.66;4976391;28;20038;-77
2023/04/18 04:13:54;;;;;;;17.52;11.50;;;;;;;-145.41;100.00;58600.66;4963900;28;20035;-77
2023/04/18 04:16:24;;;;;;;14.73;11.00;;;;;;;-145.41;100.00;58600.66;4965233;28;20241;-77
2023/04/18 04:18:52;;;;;;;15.90;11.00;;;;;;;-145.41;100.00;58600.66;4975256;28;20555;-77
2023/04/18 04:21:22;;;;;;;14.57;10.07;;;;;;;-145.41;100.00;58600.66;4973190;28;20038;-77
2023/04/18 04:23:50;;;;;;;16.13;11.15;;;;;;;-145.41;100.00;58600.66;4974122;28;20378;-77
2023/04/18 04:26:29;;;;;;;17.30;11.77;;;;;;;-145.41;100.00;58600.66;4974106;28;20500;-77
2023/04/18 04:29:03;;;;;;;16.02;10.68;;;;;;;-145.41;100.00;58600.66;4973108;28;20034;-77
2023/04/18 04:31:31;;;;;;;15.10;11.15;;;;;;;-145.41;100.00;58600.66;4976807;28;20034;-77
2023/04/18 04:33:57;;;;;;;18.95;12.10;;;;;;;-145.41;100.00;58600.66;4976198;28;20048;-77
2023/04/18 04:36:26;;;;;;;13.25;9.93;;;;;;;-145.41;100.00;58600.66;4970304;28;20555;-77
2023/04/18 04:38:51;;;;;;;14.68;10.05;;;;;;;-145.41;100.00;58600.66;4976051;28;20109;-77
2023/04/18 04:41:21;;;;;;;16.10;10.07;;;;;;;-145.41;100.00;58600.66;4957386;28;20040;-77
2023/04/18 04:43:47;;;;;;;12.20;8.18;;;;;;;-145.41;100.00;58600.66;4968961;28;20045;-77
2023/04/18 04:46:18;;;;;;;12.65;8.48;;;;;;;-145.41;100.00;58600.66;4963431;28;20493;-77
2023/04/18 04:48:44;;;;;;;11.75;7.97;;;;;;;-145.41;100.00;58600.66;4975787;28;20559;-77
2023/04/18 04:51:10;;;;;;;12.85;8.40;;;;;;;-145.41;100.00;58600.66;4987981;28;20126;-77
2023/04/18 04:53:35;;;;;;;23.17;8.60;;;;;;;-145.41;100.00;58600.66;4966205;28;20043;-77
2023/04/18 04:56:00;;;;;;;15.85;9.00;;;;;;;-145.41;100.00;58600.66;4982879;28;20084;-78
2023/04/18 04:58:26;;;;;;;16.15;8.43;;;;;;;-145.41;100.00;58600.66;4951633;28;20061;-77
2023/04/18 05:01:11;;;;;;;13.18;9.20;;;;;;;-145.41;100.00;58600.66;4978055;28;20096;-77
2023/04/18 05:03:38;;;;;;;15.68;11.27;;;;;;;-145.41;100.00;58600.66;4977680;28;20432;-77
2023/04/18 05:06:03;;;;;;;12.85;8.95;;;;;;;-145.41;100.00;58600.66;4974241;28;20033;-77
2023/04/18 05:08:29;;;;;;;13.50;8.73;;;;;;;-145.41;100.00;58600.66;4983124;28;20027;-77
2023/04/18 05:10:54;;;;;;;11.80;7.72;;;;;;;-145.41;100.00;58600.66;4986312;28;20105;-77
2023/04/18 05:13:19;;;;;;;12.02;8.13;;;;;;;-145.41;100.00;58600.66;4983552;28;20031;-77
2023/04/18 05:15:45;;;;;;;10.60;7.28;;;;;;;-145.41;100.00;58600.66;4983452;28;20566;-77
2023/04/18 05:18:11;;;;;;;11.80;7.85;;;;;;;-145.41;100.00;58600.66;4986588;28;20046;-77
2023/04/18 05:20:37;;;;;;;12.50;7.43;;;;;;;-145.41;100.00;58600.66;4980980;28;20409;-77
2023/04/18 05:23:02;;;;;;;12.60;8.15;;;;;;;-145.41;100.00;58600.66;4981486;28;20042;-77
2023/04/18 05:25:28;;;;;;;10.52;6.55;;;;;;;-145.41;100.00;58600.66;4983401;28;20036;-77
2023/04/18 05:27:53;;;;;;;14.68;8.48;;;;;;;-145.41;100.00;58600.66;4981950;28;20567;-77
2023/04/18 05:30:19;;;;;;;11.95;7.75;;;;;;;-145.41;100.00;58600.66;4986122;28;20030;-77
2023/04/18 05:32:44;;;;;;;12.50;7.80;;;;;;;-145.41;100.00;58600.66;4983667;28;20505;-77
2023/04/18 05:35:10;;;;;;;12.50;7.57;;;;;;;-145.41;100.00;58600.66;4986800;28;20039;-77
2023/04/18 05:37:35;;;;;;;9.40;6.50;;;;;;;-145.41;100.00;58600.66;4992398;28;20713;-77
2023/04/18 05:40:00;;;;;;;9.75;6.63;;;;;;;-145.41;100.00;58600.66;4988529;28;20034;-77
2023/04/18 05:42:26;;;;;;;12.38;7.25;;;;;;;-145.41;100.00;58600.66;4983760;28;20041;-77
2023/04/18 05:44:51;;;;;;;12.20;7.15;;;;;;;-145.41;100.00;58600.66;4986605;28;20030;-77
2023/04/18 05:47:16;;;;;;;10.77;7.35;;;;;;;-145.41;100.00;58600.66;4988948;28;20408;-77
2023/04/18 05:49:42;;;;;;;9.98;6.53;;;;;;;-145.41;100.00;58600.66;4990334;28;20037;-77
2023/04/18 05:52:07;;;;;;;15.65;10.63;;;;;;;-145.41;100.00;58600.66;4980755;28;20066;-77
2023/04/18 05:54:33;;;;;;;14.40;9.25;;;;;;;-145.41;100.00;58600.66;4970469;28;20050;-78
2023/04/18 05:56:59;;;;;;;19.75;13.68;;;;;;;-145.41;100.00;58600.66;4990857;28;20120;-77
2023/04/18 05:59:25;;;;;;;17.20;10.82;;;;;;;-145.41;100.00;58600.66;4979618;28;20037;-77
2023/04/18 06:01:51;;;;;;;18.27;12.32;;;;;;;-145.41;100.00;58600.66;4982366;28;20096;-77
2023/04/18 06:04:16;;;;;;;18.48;12.88;;;;;;;-145.41;100.00;58600.66;4989400;28;20510;-77
2023/04/18 06:06:41;;;;;;;14.18;8.73;;;;;;;-145.41;100.00;58600.66;4984421;28;20042;-77
2023/04/18 06:09:07;;;;;;;10.68;7.18;;;;;;;-145.41;100.00;58600.66;4983926;28;20034;-77
2023/04/18 06:11:34;;;;;;;9.77;6.68;;;;;;;-145.41;100.00;58600.66;4984480;28;20042;-77
2023/04/18 06:14:00;;;;;;;10.75;7.18;;;;;;;-145.41;100.00;58600.66;4986028;28;20038;-77
2023/04/18 06:16:25;;;;;;;10.05;6.65;;;;;;;-145.41;100.00;58600.66;4984406;28;20053;-77
2023/04/18 06:18:50;;;;;;;10.45;6.97;;;;;;;-145.41;100.00;58600.66;4992497;28;20029;-77
2023/04/18 06:21:16;;;;;;;11.43;7.63;;;;;;;-145.41;100.00;58600.66;4983267;28;20053;-77
2023/04/18 06:23:41;;;;;;;12.60;7.45;;;;;;;-145.41;100.00;58600.66;4985777;28;20121;-78
2023/04/18 06:26:07;;;;;;;9.30;6.47;;;;;;;-145.41;100.00;58600.66;4965741;28;20038;-77
2023/04/18 06:28:32;;;;;;;12.00;7.45;;;;;;;-145.41;100.00;58600.66;4984723;28;20049;-77
2023/04/18 06:30:57;;;;;;;17.38;10.95;;;;;;;-145.41;100.00;58600.66;4984890;28;20045;-77
2023/04/18 06:33:23;;;;;;;11.68;7.78;;;;;;;-145.41;100.00;58600.66;4988219;28;20041;-77
2023/04/18 06:35:48;;;;;;;12.20;7.30;;;;;;;-145.41;100.00;58600.66;4976654;28;20030;-77
2023/04/18 06:38:14;;;;;;;10.48;6.88;;;;;;;-145.41;100.00;58600.66;4982308;28;20142;-77
2023/04/18 06:40:39;;;;;;;11.75;7.25;;;;;;;-145.41;100.00;58600.66;4984502;28;20081;-77
2023/04/18 06:43:04;;;;;;;10.20;6.63;;;;;;;-145.41;100.00;58600.66;4982309;28;20138;-77
2023/04/18 06:45:30;;;;;;;11.90;7.53;;;;;;;-145.41;100.00;58600.66;5010985;23;20141;-71
2023/04/18 06:47:58;;;;;;;12.90;7.72;;;;;;;-145.41;100.00;58600.66;5007936;28;20095;-70
2023/04/18 06:50:26;;;;;;;10.85;7.07;;;;;;;-145.41;100.00;58600.66;4998113;28;20049;-69
2023/04/18 06:52:51;;;;;;;10.32;7.25;;;;;;;-145.41;100.00;58600.66;5001239;28;20034;-70
2023/04/18 06:55:17;;;;;;;10.35;7.13;;;;;;;-145.41;100.00;58600.66;5002514;28;20049;-71
2023/04/18 06:57:42;;;;;;;11.50;7.53;;;;;;;-145.41;100.00;58600.66;4980462;28;20066;-70
2023/04/18 07:00:09;;;;;;;10.70;7.15;;;;;;;-145.41;100.00;58600.66;4987498;28;20112;-70
2023/04/18 07:02:36;;;;;;;9.73;7.28;;;;;;;-145.41;100.00;58600.66;4983096;28;20039;-70
2023/04/18 07:05:02;;;;;;;11.25;7.55;;;;;;;-145.41;100.00;58600.66;4980524;28;20041;-69
2023/04/18 07:07:27;;;;;;;9.80;7.07;;;;;;;-145.41;100.00;58600.66;4985421;28;20034;-71
2023/04/18 07:09:53;;;;;;;11.98;7.72;;;;;;;-145.41;100.00;58600.66;4981476;28;20493;-71
2023/04/18 07:12:19;;;;;;;12.85;7.25;;;;;;;-145.41;100.00;58600.66;4982725;28;20090;-70
2023/04/18 07:14:44;;;;;;;11.77;7.55;;;;;;;-145.41;100.00;58600.66;4981077;28;20498;-70
2023/04/18 07:17:09;;;;;;;10.65;7.20;;;;;;;-145.41;100.00;58600.66;4982750;28;20030;-71
2023/04/18 07:19:35;;;;;;;10.35;7.03;;;;;;;-145.41;100.00;58600.66;4984592;28;20053;-71
2023/04/18 07:22:00;;;;;;;12.75;8.15;;;;;;;-145.41;100.00;58600.66;4980919;28;20042;-70
2023/04/18 07:24:25;;;;;;;15.05;8.73;;;;;;;-145.41;100.00;58600.66;4982222;28;20117;-71
2023/04/18 07:26:51;;;;;;;23.92;15.10;;;;;;;-145.41;100.00;58600.66;4986696;28;20062;-70
2023/04/18 07:29:18;;;;;;;20.30;12.70;;;;;;;-145.41;100.00;58600.66;4983223;28;20524;-70
2023/04/18 07:31:44;;;;;;;12.90;9.35;;;;;;;-145.41;100.00;58600.66;4980683;28;20085;-70
2023/04/18 07:34:10;;;;;;;12.98;8.55;;;;;;;-145.41;100.00;58600.66;4982133;28;20044;-70
2023/04/18 07:36:36;;;;;;;13.88;7.75;;;;;;;-145.41;100.00;58600.66;4982335;28;20623;-70
2023/04/18 07:39:01;;;;;;;12.85;8.55;;;;;;;-145.41;100.00;58600.66;4981184;28;20034;-70
2023/04/18 07:41:26;;;;;;;12.63;8.43;;;;;;;-145.41;100.00;58600.66;4981523;28;20089;-70
2023/04/18 07:43:52;;;;;;;13.50;9.68;;;;;;;-145.41;100.00;58600.66;4983683;28;20049;-70
2023/04/18 07:46:17;;;;;;;14.15;8.88;;;;;;;-145.41;100.00;58600.66;4981163;28;20042;-70
2023/04/18 07:48:43;;;;;;;16.15;9.60;;;;;;;-145.41;100.00;58600.66;4981387;28;20129;-71
2023/04/18 07:51:10;;;;;;;12.82;7.93;;;;;;;-145.41;100.00;58600.66;4979525;28;20070;-70
2023/04/18 07:53:35;;;;;;;13.23;8.85;;;;;;;-145.41;100.00;58600.66;4983758;28;20054;-71
2023/04/18 07:56:00;;;;;;;13.13;8.88;;;;;;;-145.41;100.00;58600.66;4979133;28;20045;-71
2023/04/18 07:58:26;;;;;;;11.95;8.45;;;;;;;-145.41;100.00;58600.66;4982714;28;20039;-71
2023/04/18 08:00:51;;;;;;;12.93;8.70;;;;;;;-145.41;100.00;58600.66;4985496;28;20069;-70
2023/04/18 08:03:16;;;;;;;16.45;9.05;;;;;;;-145.41;100.00;58600.66;4987386;28;20034;-71
2023/04/18 08:05:42;;;;;;;11.73;8.30;;;;;;;-145.41;100.00;58600.66;4980336;28;20126;-71
2023/04/18 08:08:09;;;;;;;15.18;9.65;;;;;;;-145.41;100.00;58600.66;4983966;28;20046;-70
2023/04/18 08:10:35;;;;;;;12.38;8.88;;;;;;;-145.41;100.00;58600.66;4980227;28;20121;-71
2023/04/18 08:13:01;;;;;;;12.23;8.75;;;;;;;-145.41;100.00;58600.66;4981034;28;20054;-71
2023/04/18 08:15:27;;;;;;;12.80;8.80;;;;;;;-145.41;100.00;58600.66;4983451;28;20043;-71
2023/04/18 08:17:54;;;;;;;12.88;8.10;;;;;;;-145.41;100.00;58600.66;4983198;28;20030;-71
2023/04/18 08:20:19;;;;;;;14.07;9.45;;;;;;;-145.41;100.00;58600.66;4963732;28;20038;-70
2023/04/18 08:22:46;;;;;;;14.95;9.48;;;;;;;-145.41;100.00;58600.66;4976553;28;20398;-70
2023/04/18 08:25:11;;;;;;;16.05;8.93;;;;;;;-145.41;100.00;58600.66;4978318;28;20037;-71
2023/04/18 08:27:36;;;;;;;15.35;9.95;;;;;;;-145.41;100.00;58600.66;4982868;28;20042;-71
2023/04/18 08:30:03;;;;;;;18.48;10.85;;;;;;;-145.41;100.00;58600.66;4981892;28;20062;-71
2023/04/18 08:32:30;;;;;;;13.00;9.82;;;;;;;-145.41;100.00;58600.66;4981619;28;20043;-70
2023/04/18 08:34:55;;;;;;;17.00;11.88;;;;;;;-145.41;100.00;58600.66;4981356;28;20035;-70
2023/04/18 08:37:21;;;;;;;16.00;10.35;;;;;;;-145.41;100.00;58600.66;4981825;28;20043;-71
2023/04/18 08:39:46;;;;;;;29.00;18.17;;;;;;;-145.41;100.00;58600.66;4981236;28;20042;-71
2023/04/18 08:42:18;;;;;;;27.02;17.00;;;;;;;-145.41;100.00;58600.66;4978866;28;20038;-70
2023/04/18 08:44:44;;;;;;;13.67;9.63;;;;;;;-145.41;100.00;58600.66;4983095;28;20050;-70
2023/04/18 08:47:09;;;;;;;13.10;9.05;;;;;;;-145.41;100.00;58600.66;4986427;28;20776;-69
2023/04/18 08:49:35;;;;;;;13.18;9.20;;;;;;;-145.41;100.00;58600.66;4980164;28;20097;-71
2023/04/18 08:52:03;;;;;;;15.88;11.00;;;;;;;-145.41;100.00;58600.66;4979866;28;20038;-70
2023/04/18 08:54:29;;;;;;;15.70;10.77;;;;;;;-145.41;100.00;58600.66;4985740;28;20129;-70
2023/04/18 08:57:11;;;;;;;15.98;10.88;;;;;;;-145.41;100.00;58600.66;4983974;28;20113;-71
2023/04/18 08:59:37;;;;;;;15.00;9.95;;;;;;;-145.41;100.00;58600.66;4982119;28;20030;-70
2023/04/18 09:02:05;;;;;;;15.60;9.45;;;;;;;-145.41;100.00;58600.66;4982088;28;20919;-70
2023/04/18 09:04:33;;;;;;;13.57;9.40;;;;;;;-145.41;100.00;58600.66;4984257;28;20045;-70
2023/04/18 09:06:58;;;;;;;16.05;10.68;;;;;;;-145.41;100.00;58600.66;4986445;28;20042;-71
2023/04/18 09:09:26;;;;;;;13.23;9.30;;;;;;;-145.41;100.00;58600.66;4985059;28;20447;-71
2023/04/18 09:12:06;;;;;;;20.77;14.02;;;;;;;-145.41;100.00;58600.66;4979613;28;20486;-71
2023/04/18 09:14:32;;;;;;;31.35;20.63;;;;;;;-145.41;100.00;58600.66;4985366;28;20037;-71
2023/04/18 09:16:57;;;;;;;15.52;10.63;;;;;;;-145.41;100.00;58600.66;4984675;28;20117;-70
2023/04/18 09:19:22;;;;;;;15.93;9.77;;;;;;;-145.41;100.00;58600.66;4985243;28;20022;-70
2023/04/18 09:21:59;;;;;;;13.05;9.55;;;;;;;-145.41;100.00;58600.66;4983585;28;20043;-70
2023/04/18 09:24:27;;;;;;;14.40;10.23;;;;;;;-145.41;100.00;58600.66;4980012;28;20038;-70
2023/04/18 09:26:54;;;;;;;12.50;9.07;;;;;;;-145.41;100.00;58600.66;4984275;28;20073;-71
2023/04/18 09:29:23;;;;;;;12.40;9.20;;;;;;;-145.41;100.00;58600.66;4983748;28;20038;-71
2023/04/18 09:32:02;;;;;;;14.57;10.25;;;;;;;-145.41;100.00;58600.66;4985507;28;20461;-71
2023/04/18 09:34:28;;;;;;;15.40;10.65;;;;;;;-145.41;100.00;58600.66;4986216;28;20038;-71
2023/04/18 09:37:08;;;;;;;17.80;11.43;;;;;;;-145.41;100.00;58600.66;4983123;28;20049;-71
2023/04/18 09:39:35;;;;;;;14.38;10.68;;;;;;;-145.41;100.00;58600.66;4974546;28;20031;-70
2023/04/18 09:42:01;;;;;;;16.30;11.70;;;;;;;-145.41;100.00;58600.66;4986186;28;20086;-71
2023/04/18 09:44:26;;;;;;;16.15;11.55;;;;;;;-145.41;100.00;58600.66;4984769;28;20034;-71
2023/04/18 09:46:52;;;;;;;18.58;11.98;;;;;;;-145.41;100.00;58600.66;4986004;28;20034;-71
2023/04/18 09:49:17;;;;;;;14.73;10.10;;;;;;;-145.41;100.00;58600.66;4982030;28;20041;-71
2023/04/18 09:51:43;;;;;;;16.17;11.00;;;;;;;-145.41;100.00;58600.66;4984477;28;20152;-71
2023/04/18 09:54:16;;;;;;;15.70;11.77;;;;;;;-145.41;100.00;58600.66;4988956;28;20561;-71
2023/04/18 09:56:43;;;;;;;16.50;12.57;;;;;;;-145.41;100.00;58600.66;4987731;28;20042;-71
2023/04/18 09:59:10;;;;;;;17.73;12.90;;;;;;;-145.41;100.00;58600.66;4989513;28;20034;-71
2023/04/18 10:01:36;;;;;;;14.48;11.07;;;;;;;-145.41;100.00;58600.66;4983568;28;20077;-71
2023/04/18 10:04:05;;;;;;;17.60;12.75;;;;;;;-145.41;100.00;58600.66;4987340;28;20027;-71
2023/04/18 10:06:33;;;;;;;18.30;11.75;;;;;;;-145.41;100.00;58600.66;4982532;28;20042;-71
2023/04/18 10:09:01;;;;;;;14.95;11.52;;;;;;;-145.41;100.00;58600.66;4974173;28;20144;-71
2023/04/18 10:11:32;;;;;;;15.80;11.15;;;;;;;-145.41;100.00;58600.66;4989002;28;20378;-71
2023/04/18 10:14:01;;;;;;;16.20;11.32;;;;;;;-145.41;100.00;58600.66;4985721;28;20683;-71
2023/04/18 10:16:28;;;;;;;14.38;11.15;;;;;;;-145.41;100.00;58600.66;4984629;28;20062;-71
2023/04/18 10:18:53;;;;;;;15.95;12.75;;;;;;;-145.41;100.00;58600.66;4982238;28;20027;-71
2023/04/18 10:21:20;;;;;;;14.15;10.45;;;;;;;-145.41;100.00;58600.66;4978280;28;20057;-71
2023/04/18 10:23:47;;;;;;;14.18;10.85;;;;;;;-145.41;100.00;58600.66;4991205;28;20034;-70
2023/04/18 10:26:13;;;;;;;14.38;10.90;;;;;;;-145.41;100.00;58600.66;4977730;28;20045;-71
2023/04/18 10:28:50;;;;;;;14.43;11.02;;;;;;;-145.41;100.00;58600.66;4977873;28;20401;-70
2023/04/18 10:31:15;;;;;;;14.20;10.38;;;;;;;-145.41;100.00;58600.66;4978855;28;20031;-71
2023/04/18 10:33:46;;;;;;;11.40;9.20;;;;;;;-145.41;100.00;58600.66;4979485;28;20066;-71
2023/04/18 10:36:18;;;;;;;14.07;9.15;;;;;;;-145.41;100.00;58600.66;4982573;28;20038;-71
2023/04/18 10:38:58;;;;;;;12.23;8.93;;;;;;;-145.41;100.00;58600.66;4985121;28;20445;-70
2023/04/18 10:41:30;;;;;;;12.52;8.85;;;;;;;-145.41;100.00;58600.66;4981317;28;20034;-71
2023/04/18 10:44:16;;;;;;;13.95;9.10;;;;;;;-145.41;100.00;58600.66;4982567;28;20039;-71
2023/04/18 10:47:02;;;;;;;12.63;8.90;;;;;;;-145.41;100.00;58600.66;4981636;28;20038;-71
2023/04/18 10:49:30;;;;;;;11.93;8.15;;;;;;;-145.41;100.00;58600.66;4978881;28;20043;-71
2023/04/18 10:52:00;;;;;;;12.48;8.55;;;;;;;-145.41;100.00;58600.66;4979081;28;20077;-71
2023/04/18 10:54:36;;;;;;;11.43;8.50;;;;;;;-145.41;100.00;58600.66;4983876;28;20034;-71
2023/04/18 10:57:03;;;;;;;11.82;7.70;;;;;;;-145.41;100.00;58600.66;4984415;28;20038;-71